sensor_id;sensor_type;location;lat;lon;timestamp;P1;durP1;ratioP1;P2;durP2;ratioP2
61644;SDS011;47553;52.428;13.382;2022-11-18T00:01:57;26.15;;;10.18;;
61644;SDS011;47553;52.428;13.382;2022-11-18T00:03:58;23.63;;;8.07;;
61644;SDS011;47553;52.428;13.382;2022-11-18T00:06:00;23.38;;;9.25;;
61644;SDS011;47553;52.428;13.382;2022-11-18T00:08:02;28.58;;;9.88;;
61644;SDS011;47553;52.428;13.382;2022-11-18T00:10:05;26.40;;;10.13;;
61644;SDS011;47553;52.428;13.382;2022-11-18T00:12:08;31.83;;;11.55;;
61644;SDS011;47553;52.428;13.382;2022-11-18T00:14:10;25.80;;;9.65;;
61644;SDS011;47553;52.428;13.382;2022-11-18T00:16:14;30.67;;;10.38;;
61644;SDS011;47553;52.428;13.382;2022-11-18T00:18:15;30.77;;;11.25;;
61644;SDS011;47553;52.428;13.382;2022-11-18T00:20:17;30.88;;;10.65;;
61644;SDS011;47553;52.428;13.382;2022-11-18T00:22:18;28.00;;;9.40;;
61644;SDS011;47553;52.428;13.382;2022-11-18T00:24:23;29.88;;;10.45;;
61644;SDS011;47553;52.428;13.382;2022-11-18T00:26:25;25.92;;;8.93;;
61644;SDS011;47553;52.428;13.382;2022-11-18T00:28:28;27.83;;;9.98;;
61644;SDS011;47553;52.428;13.382;2022-11-18T00:30:30;28.02;;;10.85;;
61644;SDS011;47553;52.428;13.382;2022-11-18T00:32:32;27.25;;;9.90;;
61644;SDS011;47553;52.428;13.382;2022-11-18T00:34:33;27.60;;;9.88;;
61644;SDS011;47553;52.428;13.382;2022-11-18T00:36:35;30.75;;;10.27;;
61644;SDS011;47553;52.428;13.382;2022-11-18T00:38:36;20.67;;;7.65;;
61644;SDS011;47553;52.428;13.382;2022-11-18T00:40:38;27.45;;;9.40;;
61644;SDS011;47553;52.428;13.382;2022-11-18T00:42:40;29.73;;;11.57;;
61644;SDS011;47553;52.428;13.382;2022-11-18T00:44:43;28.33;;;10.50;;
61644;SDS011;47553;52.428;13.382;2022-11-18T00:46:45;28.92;;;10.82;;
61644;SDS011;47553;52.428;13.382;2022-11-18T00:48:46;29.23;;;10.38;;
61644;SDS011;47553;52.428;13.382;2022-11-18T00:50:48;29.63;;;10.25;;
61644;SDS011;47553;52.428;13.382;2022-11-18T00:52:50;26.77;;;10.05;;
61644;SDS011;47553;52.428;13.382;2022-11-18T00:54:51;26.42;;;10.32;;
61644;SDS011;47553;52.428;13.382;2022-11-18T00:56:56;29.85;;;10.85;;
61644;SDS011;47553;52.428;13.382;2022-11-18T01:01:01;23.25;;;7.43;;
61644;SDS011;47553;52.428;13.382;2022-11-18T01:03:03;25.98;;;9.23;;
61644;SDS011;47553;52.428;13.382;2022-11-18T01:05:05;22.30;;;9.70;;
61644;SDS011;47553;52.428;13.382;2022-11-18T01:07:07;28.33;;;10.30;;
61644;SDS011;47553;52.428;13.382;2022-11-18T01:11:10;22.98;;;8.27;;
61644;SDS011;47553;52.428;13.382;2022-11-18T01:13:15;30.48;;;10.13;;
61644;SDS011;47553;52.428;13.382;2022-11-18T01:15:18;23.50;;;9.65;;
61644;SDS011;47553;52.428;13.382;2022-11-18T01:17:21;26.35;;;10.18;;
61644;SDS011;47553;52.428;13.382;2022-11-18T01:19:23;30.17;;;10.27;;
61644;SDS011;47553;52.428;13.382;2022-11-18T01:21:25;25.52;;;9.85;;
61644;SDS011;47553;52.428;13.382;2022-11-18T01:23:26;24.55;;;9.35;;
61644;SDS011;47553;52.428;13.382;2022-11-18T01:25:28;28.33;;;10.00;;
61644;SDS011;47553;52.428;13.382;2022-11-18T01:27:31;27.92;;;10.07;;
61644;SDS011;47553;52.428;13.382;2022-11-18T01:29:32;27.98;;;9.82;;
61644;SDS011;47553;52.428;13.382;2022-11-18T01:31:34;26.50;;;10.07;;
61644;SDS011;47553;52.428;13.382;2022-11-18T01:33:37;26.88;;;9.60;;
61644;SDS011;47553;52.428;13.382;2022-11-18T01:35:41;23.58;;;9.35;;
61644;SDS011;47553;52.428;13.382;2022-11-18T01:37:43;26.23;;;9.13;;
61644;SDS011;47553;52.428;13.382;2022-11-18T01:41:46;23.08;;;8.50;;
61644;SDS011;47553;52.428;13.382;2022-11-18T01:43:50;23.13;;;8.38;;
61644;SDS011;47553;52.428;13.382;2022-11-18T01:45:54;24.42;;;9.23;;
61644;SDS011;47553;52.428;13.382;2022-11-18T01:47:56;26.48;;;9.90;;
61644;SDS011;47553;52.428;13.382;2022-11-18T01:50:04;25.23;;;9.43;;
61644;SDS011;47553;52.428;13.382;2022-11-18T01:52:07;20.40;;;8.55;;
61644;SDS011;47553;52.428;13.382;2022-11-18T01:54:11;22.48;;;9.25;;
61644;SDS011;47553;52.428;13.382;2022-11-18T01:56:17;23.02;;;9.35;;
61644;SDS011;47553;52.428;13.382;2022-11-18T01:58:25;21.38;;;8.77;;
61644;SDS011;47553;52.428;13.382;2022-11-18T02:00:29;23.58;;;8.75;;
61644;SDS011;47553;52.428;13.382;2022-11-18T02:02:31;24.77;;;9.60;;
61644;SDS011;47553;52.428;13.382;2022-11-18T02:04:36;20.95;;;8.25;;
61644;SDS011;47553;52.428;13.382;2022-11-18T02:06:40;19.70;;;8.43;;
61644;SDS011;47553;52.428;13.382;2022-11-18T02:08:42;22.27;;;7.72;;
61644;SDS011;47553;52.428;13.382;2022-11-18T02:10:45;22.10;;;8.95;;
61644;SDS011;47553;52.428;13.382;2022-11-18T02:12:47;17.02;;;7.03;;
61644;SDS011;47553;52.428;13.382;2022-11-18T02:14:50;23.55;;;9.15;;
61644;SDS011;47553;52.428;13.382;2022-11-18T02:16:55;20.50;;;8.98;;
61644;SDS011;47553;52.428;13.382;2022-11-18T02:19:09;20.90;;;7.95;;
61644;SDS011;47553;52.428;13.382;2022-11-18T02:21:26;26.58;;;9.57;;
61644;SDS011;47553;52.428;13.382;2022-11-18T02:28:58;19.30;;;8.18;;
61644;SDS011;47553;52.428;13.382;2022-11-18T02:31:06;17.92;;;7.65;;
61644;SDS011;47553;52.428;13.382;2022-11-18T02:33:14;27.13;;;9.82;;
61644;SDS011;47553;52.428;13.382;2022-11-18T02:35:23;24.25;;;9.85;;
61644;SDS011;47553;52.428;13.382;2022-11-18T02:37:30;24.38;;;10.05;;
61644;SDS011;47553;52.428;13.382;2022-11-18T02:39:36;26.77;;;9.98;;
61644;SDS011;47553;52.428;13.382;2022-11-18T02:41:43;21.00;;;7.85;;
61644;SDS011;47553;52.428;13.382;2022-11-18T02:43:48;22.50;;;9.07;;
61644;SDS011;47553;52.428;13.382;2022-11-18T02:45:56;27.55;;;10.65;;
61644;SDS011;47553;52.428;13.382;2022-11-18T02:48:03;23.20;;;8.80;;
61644;SDS011;47553;52.428;13.382;2022-11-18T02:50:10;17.90;;;8.00;;
61644;SDS011;47553;52.428;13.382;2022-11-18T02:52:16;24.88;;;8.50;;
61644;SDS011;47553;52.428;13.382;2022-11-18T02:54:20;18.08;;;7.47;;
61644;SDS011;47553;52.428;13.382;2022-11-18T02:56:24;26.40;;;9.82;;
61644;SDS011;47553;52.428;13.382;2022-11-18T02:58:27;27.50;;;9.02;;
61644;SDS011;47553;52.428;13.382;2022-11-18T03:00:29;20.65;;;8.05;;
61644;SDS011;47553;52.428;13.382;2022-11-18T03:02:39;26.17;;;8.88;;
61644;SDS011;47553;52.428;13.382;2022-11-18T03:04:43;26.27;;;9.23;;
61644;SDS011;47553;52.428;13.382;2022-11-18T03:06:47;23.00;;;8.40;;
61644;SDS011;47553;52.428;13.382;2022-11-18T03:08:54;29.42;;;10.50;;
61644;SDS011;47553;52.428;13.382;2022-11-18T03:11:06;27.75;;;10.68;;
61644;SDS011;47553;52.428;13.382;2022-11-18T03:13:18;21.23;;;8.38;;
61644;SDS011;47553;52.428;13.382;2022-11-18T03:15:28;21.60;;;8.45;;
61644;SDS011;47553;52.428;13.382;2022-11-18T03:17:38;23.45;;;8.90;;
61644;SDS011;47553;52.428;13.382;2022-11-18T03:19:57;22.20;;;8.52;;
61644;SDS011;47553;52.428;13.382;2022-11-18T03:22:08;24.55;;;9.60;;
61644;SDS011;47553;52.428;13.382;2022-11-18T03:24:14;22.83;;;8.45;;
61644;SDS011;47553;52.428;13.382;2022-11-18T03:26:21;19.02;;;8.77;;
61644;SDS011;47553;52.428;13.382;2022-11-18T03:28:33;20.80;;;8.05;;
61644;SDS011;47553;52.428;13.382;2022-11-18T03:30:42;19.75;;;7.53;;
61644;SDS011;47553;52.428;13.382;2022-11-18T03:32:52;24.67;;;9.20;;
61644;SDS011;47553;52.428;13.382;2022-11-18T03:35:01;22.77;;;8.93;;
61644;SDS011;47553;52.428;13.382;2022-11-18T03:37:07;19.65;;;8.30;;
61644;SDS011;47553;52.428;13.382;2022-11-18T03:39:11;25.70;;;9.32;;
61644;SDS011;47553;52.428;13.382;2022-11-18T03:41:16;27.60;;;11.10;;
61644;SDS011;47553;52.428;13.382;2022-11-18T03:43:21;24.63;;;9.77;;
61644;SDS011;47553;52.428;13.382;2022-11-18T03:45:27;27.67;;;10.27;;
61644;SDS011;47553;52.428;13.382;2022-11-18T03:47:33;27.58;;;10.23;;
61644;SDS011;47553;52.428;13.382;2022-11-18T03:49:41;26.45;;;9.68;;
61644;SDS011;47553;52.428;13.382;2022-11-18T03:51:47;22.00;;;8.73;;
61644;SDS011;47553;52.428;13.382;2022-11-18T03:53:54;21.58;;;9.55;;
61644;SDS011;47553;52.428;13.382;2022-11-18T03:56:01;24.27;;;10.32;;
61644;SDS011;47553;52.428;13.382;2022-11-18T03:58:18;24.70;;;9.30;;
61644;SDS011;47553;52.428;13.382;2022-11-18T04:00:25;28.13;;;10.30;;
61644;SDS011;47553;52.428;13.382;2022-11-18T04:02:32;23.75;;;9.25;;
61644;SDS011;47553;52.428;13.382;2022-11-18T04:04:35;24.20;;;9.50;;
61644;SDS011;47553;52.428;13.382;2022-11-18T04:06:40;22.80;;;8.75;;
61644;SDS011;47553;52.428;13.382;2022-11-18T04:08:45;23.05;;;9.73;;
61644;SDS011;47553;52.428;13.382;2022-11-18T04:10:54;27.98;;;10.35;;
61644;SDS011;47553;52.428;13.382;2022-11-18T04:13:00;27.75;;;10.40;;
61644;SDS011;47553;52.428;13.382;2022-11-18T04:15:07;24.92;;;9.45;;
61644;SDS011;47553;52.428;13.382;2022-11-18T04:17:10;25.88;;;9.27;;
61644;SDS011;47553;52.428;13.382;2022-11-18T04:19:13;27.35;;;10.90;;
61644;SDS011;47553;52.428;13.382;2022-11-18T04:21:14;23.73;;;9.75;;
61644;SDS011;47553;52.428;13.382;2022-11-18T04:23:17;20.75;;;8.77;;
61644;SDS011;47553;52.428;13.382;2022-11-18T04:25:19;25.80;;;9.18;;
61644;SDS011;47553;52.428;13.382;2022-11-18T04:27:20;26.38;;;9.77;;
61644;SDS011;47553;52.428;13.382;2022-11-18T04:29:22;23.70;;;9.10;;
61644;SDS011;47553;52.428;13.382;2022-11-18T04:31:24;27.92;;;9.93;;
61644;SDS011;47553;52.428;13.382;2022-11-18T04:33:25;23.45;;;9.38;;
61644;SDS011;47553;52.428;13.382;2022-11-18T04:35:27;22.98;;;9.40;;
61644;SDS011;47553;52.428;13.382;2022-11-18T04:37:28;23.02;;;8.93;;
61644;SDS011;47553;52.428;13.382;2022-11-18T04:39:31;24.63;;;9.15;;
61644;SDS011;47553;52.428;13.382;2022-11-18T04:41:33;22.83;;;8.57;;
61644;SDS011;47553;52.428;13.382;2022-11-18T04:43:34;20.27;;;7.30;;
61644;SDS011;47553;52.428;13.382;2022-11-18T04:45:36;29.23;;;11.02;;
61644;SDS011;47553;52.428;13.382;2022-11-18T04:47:38;30.88;;;11.45;;
61644;SDS011;47553;52.428;13.382;2022-11-18T04:49:39;29.75;;;10.52;;
61644;SDS011;47553;52.428;13.382;2022-11-18T04:51:41;21.40;;;9.05;;
61644;SDS011;47553;52.428;13.382;2022-11-18T04:53:43;29.15;;;9.75;;
61644;SDS011;47553;52.428;13.382;2022-11-18T04:55:46;28.88;;;10.38;;
61644;SDS011;47553;52.428;13.382;2022-11-18T04:57:48;26.98;;;9.63;;
61644;SDS011;47553;52.428;13.382;2022-11-18T04:59:49;28.98;;;10.02;;
61644;SDS011;47553;52.428;13.382;2022-11-18T05:01:51;25.42;;;9.40;;
61644;SDS011;47553;52.428;13.382;2022-11-18T05:03:53;28.52;;;10.35;;
61644;SDS011;47553;52.428;13.382;2022-11-18T05:05:55;31.35;;;10.50;;
61644;SDS011;47553;52.428;13.382;2022-11-18T05:08:01;27.40;;;9.60;;
61644;SDS011;47553;52.428;13.382;2022-11-18T05:10:02;31.92;;;11.73;;
61644;SDS011;47553;52.428;13.382;2022-11-18T05:12:08;24.55;;;9.77;;
61644;SDS011;47553;52.428;13.382;2022-11-18T05:14:12;27.05;;;10.25;;
61644;SDS011;47553;52.428;13.382;2022-11-18T05:16:14;35.67;;;12.27;;
61644;SDS011;47553;52.428;13.382;2022-11-18T05:20:17;36.13;;;11.50;;
61644;SDS011;47553;52.428;13.382;2022-11-18T05:22:18;24.90;;;9.77;;
61644;SDS011;47553;52.428;13.382;2022-11-18T05:24:20;29.00;;;10.07;;
61644;SDS011;47553;52.428;13.382;2022-11-18T05:26:22;29.92;;;11.70;;
61644;SDS011;47553;52.428;13.382;2022-11-18T05:28:25;31.95;;;11.43;;
61644;SDS011;47553;52.428;13.382;2022-11-18T05:30:27;27.58;;;9.55;;
61644;SDS011;47553;52.428;13.382;2022-11-18T05:32:28;37.80;;;12.48;;
61644;SDS011;47553;52.428;13.382;2022-11-18T05:34:30;40.53;;;12.68;;
61644;SDS011;47553;52.428;13.382;2022-11-18T05:36:31;31.33;;;11.57;;
61644;SDS011;47553;52.428;13.382;2022-11-18T05:38:33;37.08;;;12.82;;
61644;SDS011;47553;52.428;13.382;2022-11-18T05:40:35;38.97;;;13.18;;
61644;SDS011;47553;52.428;13.382;2022-11-18T05:42:36;34.33;;;12.63;;
61644;SDS011;47553;52.428;13.382;2022-11-18T05:44:39;36.40;;;12.15;;
61644;SDS011;47553;52.428;13.382;2022-11-18T05:46:41;32.38;;;11.77;;
61644;SDS011;47553;52.428;13.382;2022-11-18T05:48:42;40.97;;;13.90;;
61644;SDS011;47553;52.428;13.382;2022-11-18T05:50:45;35.30;;;11.77;;
61644;SDS011;47553;52.428;13.382;2022-11-18T05:52:47;33.88;;;12.55;;
61644;SDS011;47553;52.428;13.382;2022-11-18T05:54:49;35.58;;;12.95;;
61644;SDS011;47553;52.428;13.382;2022-11-18T05:56:51;34.55;;;12.60;;
61644;SDS011;47553;52.428;13.382;2022-11-18T05:58:53;35.67;;;11.68;;
61644;SDS011;47553;52.428;13.382;2022-11-18T06:00:56;34.00;;;11.73;;
61644;SDS011;47553;52.428;13.382;2022-11-18T06:03:03;26.45;;;10.27;;
61644;SDS011;47553;52.428;13.382;2022-11-18T06:05:11;30.85;;;10.00;;
61644;SDS011;47553;52.428;13.382;2022-11-18T06:07:14;36.67;;;11.57;;
61644;SDS011;47553;52.428;13.382;2022-11-18T06:09:20;29.15;;;10.52;;
61644;SDS011;47553;52.428;13.382;2022-11-18T06:11:28;27.52;;;9.02;;
61644;SDS011;47553;52.428;13.382;2022-11-18T06:13:33;30.52;;;9.88;;
61644;SDS011;47553;52.428;13.382;2022-11-18T06:15:39;31.60;;;10.55;;
61644;SDS011;47553;52.428;13.382;2022-11-18T06:17:44;28.88;;;10.18;;
61644;SDS011;47553;52.428;13.382;2022-11-18T06:19:50;29.10;;;10.07;;
61644;SDS011;47553;52.428;13.382;2022-11-18T06:21:52;28.55;;;10.48;;
61644;SDS011;47553;52.428;13.382;2022-11-18T06:23:54;21.95;;;8.73;;
61644;SDS011;47553;52.428;13.382;2022-11-18T06:25:56;27.38;;;9.40;;
61644;SDS011;47553;52.428;13.382;2022-11-18T06:27:58;31.05;;;9.95;;
61644;SDS011;47553;52.428;13.382;2022-11-18T06:30:02;35.15;;;10.82;;
61644;SDS011;47553;52.428;13.382;2022-11-18T06:32:04;25.30;;;10.07;;
61644;SDS011;47553;52.428;13.382;2022-11-18T06:34:10;27.38;;;9.50;;
61644;SDS011;47553;52.428;13.382;2022-11-18T06:36:12;28.70;;;10.68;;
61644;SDS011;47553;52.428;13.382;2022-11-18T06:38:13;35.22;;;11.15;;
61644;SDS011;47553;52.428;13.382;2022-11-18T06:40:15;36.08;;;13.32;;
61644;SDS011;47553;52.428;13.382;2022-11-18T06:42:17;31.48;;;11.75;;
61644;SDS011;47553;52.428;13.382;2022-11-18T06:44:19;28.40;;;9.68;;
61644;SDS011;47553;52.428;13.382;2022-11-18T06:46:20;21.42;;;7.97;;
61644;SDS011;47553;52.428;13.382;2022-11-18T06:48:22;22.55;;;9.00;;
61644;SDS011;47553;52.428;13.382;2022-11-18T06:52:26;21.33;;;7.45;;
61644;SDS011;47553;52.428;13.382;2022-11-18T06:54:28;21.30;;;8.13;;
61644;SDS011;47553;52.428;13.382;2022-11-18T06:56:30;23.90;;;8.52;;
61644;SDS011;47553;52.428;13.382;2022-11-18T06:58:31;22.00;;;7.38;;
61644;SDS011;47553;52.428;13.382;2022-11-18T07:00:33;22.55;;;7.72;;
61644;SDS011;47553;52.428;13.382;2022-11-18T07:02:35;26.73;;;9.10;;
61644;SDS011;47553;52.428;13.382;2022-11-18T07:04:36;18.65;;;7.82;;
61644;SDS011;47553;52.428;13.382;2022-11-18T07:06:39;23.30;;;7.95;;
61644;SDS011;47553;52.428;13.382;2022-11-18T07:08:41;20.58;;;7.30;;
61644;SDS011;47553;52.428;13.382;2022-11-18T07:10:50;24.00;;;8.15;;
61644;SDS011;47553;52.428;13.382;2022-11-18T07:12:52;19.02;;;7.57;;
61644;SDS011;47553;52.428;13.382;2022-11-18T07:14:54;23.90;;;8.52;;
61644;SDS011;47553;52.428;13.382;2022-11-18T07:16:55;20.80;;;8.25;;
61644;SDS011;47553;52.428;13.382;2022-11-18T07:18:57;21.58;;;7.45;;
61644;SDS011;47553;52.428;13.382;2022-11-18T07:21:02;25.88;;;8.77;;
61644;SDS011;47553;52.428;13.382;2022-11-18T07:23:05;25.50;;;8.55;;
61644;SDS011;47553;52.428;13.382;2022-11-18T07:25:07;27.10;;;9.02;;
61644;SDS011;47553;52.428;13.382;2022-11-18T07:27:09;24.42;;;8.90;;
61644;SDS011;47553;52.428;13.382;2022-11-18T07:29:11;28.45;;;9.85;;
61644;SDS011;47553;52.428;13.382;2022-11-18T07:31:13;24.67;;;9.00;;
61644;SDS011;47553;52.428;13.382;2022-11-18T07:33:16;30.75;;;10.60;;
61644;SDS011;47553;52.428;13.382;2022-11-18T07:37:19;23.08;;;8.57;;
61644;SDS011;47553;52.428;13.382;2022-11-18T07:39:22;20.98;;;7.65;;
61644;SDS011;47553;52.428;13.382;2022-11-18T07:41:24;23.95;;;7.78;;
61644;SDS011;47553;52.428;13.382;2022-11-18T07:43:27;25.42;;;7.97;;
61644;SDS011;47553;52.428;13.382;2022-11-18T07:45:29;22.85;;;7.95;;
61644;SDS011;47553;52.428;13.382;2022-11-18T07:47:32;25.42;;;9.63;;
61644;SDS011;47553;52.428;13.382;2022-11-18T07:49:34;24.35;;;9.20;;
61644;SDS011;47553;52.428;13.382;2022-11-18T07:51:36;23.35;;;8.35;;
61644;SDS011;47553;52.428;13.382;2022-11-18T07:53:39;17.40;;;6.57;;
61644;SDS011;47553;52.428;13.382;2022-11-18T07:55:42;19.52;;;7.35;;
61644;SDS011;47553;52.428;13.382;2022-11-18T07:57:44;17.52;;;6.63;;
61644;SDS011;47553;52.428;13.382;2022-11-18T07:59:45;19.33;;;7.60;;
61644;SDS011;47553;52.428;13.382;2022-11-18T08:01:47;26.80;;;9.60;;
61644;SDS011;47553;52.428;13.382;2022-11-18T08:03:49;21.92;;;8.65;;
61644;SDS011;47553;52.428;13.382;2022-11-18T08:07:52;26.42;;;8.57;;
61644;SDS011;47553;52.428;13.382;2022-11-18T08:09:53;23.90;;;9.02;;
61644;SDS011;47553;52.428;13.382;2022-11-18T08:11:56;22.02;;;7.47;;
61644;SDS011;47553;52.428;13.382;2022-11-18T08:13:58;20.48;;;7.85;;
61644;SDS011;47553;52.428;13.382;2022-11-18T08:15:59;19.27;;;7.07;;
61644;SDS011;47553;52.428;13.382;2022-11-18T08:18:02;19.15;;;8.23;;
61644;SDS011;47553;52.428;13.382;2022-11-18T08:20:13;24.90;;;8.32;;
61644;SDS011;47553;52.428;13.382;2022-11-18T08:24:16;19.52;;;7.95;;
61644;SDS011;47553;52.428;13.382;2022-11-18T08:26:18;20.85;;;9.20;;
61644;SDS011;47553;52.428;13.382;2022-11-18T08:28:21;20.52;;;7.63;;
61644;SDS011;47553;52.428;13.382;2022-11-18T08:30:23;25.83;;;9.15;;
61644;SDS011;47553;52.428;13.382;2022-11-18T08:32:25;18.33;;;7.07;;
61644;SDS011;47553;52.428;13.382;2022-11-18T08:34:26;26.30;;;9.57;;
61644;SDS011;47553;52.428;13.382;2022-11-18T08:36:29;25.73;;;7.75;;
61644;SDS011;47553;52.428;13.382;2022-11-18T08:38:32;17.98;;;7.60;;
61644;SDS011;47553;52.428;13.382;2022-11-18T08:40:34;15.30;;;5.82;;
61644;SDS011;47553;52.428;13.382;2022-11-18T08:42:35;24.30;;;8.38;;
61644;SDS011;47553;52.428;13.382;2022-11-18T08:44:38;25.15;;;9.43;;
61644;SDS011;47553;52.428;13.382;2022-11-18T08:46:40;17.08;;;6.60;;
61644;SDS011;47553;52.428;13.382;2022-11-18T08:48:42;20.88;;;7.65;;
61644;SDS011;47553;52.428;13.382;2022-11-18T08:50:43;22.33;;;7.15;;
61644;SDS011;47553;52.428;13.382;2022-11-18T08:52:45;21.08;;;7.18;;
61644;SDS011;47553;52.428;13.382;2022-11-18T08:54:48;21.85;;;7.78;;
61644;SDS011;47553;52.428;13.382;2022-11-18T08:56:49;24.02;;;8.85;;
61644;SDS011;47553;52.428;13.382;2022-11-18T08:58:51;20.42;;;7.45;;
61644;SDS011;47553;52.428;13.382;2022-11-18T09:00:54;19.98;;;7.40;;
61644;SDS011;47553;52.428;13.382;2022-11-18T09:02:56;19.35;;;7.80;;
61644;SDS011;47553;52.428;13.382;2022-11-18T09:04:57;18.08;;;7.38;;
61644;SDS011;47553;52.428;13.382;2022-11-18T09:06:59;20.23;;;6.47;;
61644;SDS011;47553;52.428;13.382;2022-11-18T09:09:02;21.13;;;7.82;;
61644;SDS011;47553;52.428;13.382;2022-11-18T09:11:07;19.25;;;6.55;;
61644;SDS011;47553;52.428;13.382;2022-11-18T09:13:10;24.95;;;9.57;;
61644;SDS011;47553;52.428;13.382;2022-11-18T09:15:32;18.92;;;7.18;;
61644;SDS011;47553;52.428;13.382;2022-11-18T09:17:35;28.83;;;8.32;;
61644;SDS011;47553;52.428;13.382;2022-11-18T09:19:36;21.95;;;6.65;;
61644;SDS011;47553;52.428;13.382;2022-11-18T09:21:53;25.10;;;10.10;;
61644;SDS011;47553;52.428;13.382;2022-11-18T09:23:55;18.73;;;7.50;;
61644;SDS011;47553;52.428;13.382;2022-11-18T09:25:57;23.35;;;8.93;;
61644;SDS011;47553;52.428;13.382;2022-11-18T09:27:59;19.25;;;8.07;;
61644;SDS011;47553;52.428;13.382;2022-11-18T09:30:01;16.67;;;7.53;;
61644;SDS011;47553;52.428;13.382;2022-11-18T09:32:02;16.10;;;6.78;;
61644;SDS011;47553;52.428;13.382;2022-11-18T09:36:10;16.77;;;6.68;;
61644;SDS011;47553;52.428;13.382;2022-11-18T09:38:13;19.17;;;7.68;;
61644;SDS011;47553;52.428;13.382;2022-11-18T09:42:27;22.00;;;8.45;;
61644;SDS011;47553;52.428;13.382;2022-11-18T09:44:42;16.42;;;6.03;;
61644;SDS011;47553;52.428;13.382;2022-11-18T09:46:54;19.67;;;8.20;;
61644;SDS011;47553;52.428;13.382;2022-11-18T09:49:10;15.85;;;6.45;;
61644;SDS011;47553;52.428;13.382;2022-11-18T09:51:17;18.10;;;7.15;;
61644;SDS011;47553;52.428;13.382;2022-11-18T09:53:19;23.27;;;8.38;;
61644;SDS011;47553;52.428;13.382;2022-11-18T09:55:25;19.98;;;7.38;;
61644;SDS011;47553;52.428;13.382;2022-11-18T09:57:28;18.73;;;7.43;;
61644;SDS011;47553;52.428;13.382;2022-11-18T09:59:37;16.52;;;6.95;;
61644;SDS011;47553;52.428;13.382;2022-11-18T10:01:39;16.05;;;7.40;;
61644;SDS011;47553;52.428;13.382;2022-11-18T10:03:42;19.48;;;7.50;;
61644;SDS011;47553;52.428;13.382;2022-11-18T10:07:55;16.98;;;7.13;;
61644;SDS011;47553;52.428;13.382;2022-11-18T10:10:18;12.27;;;5.82;;
61644;SDS011;47553;52.428;13.382;2022-11-18T10:12:25;11.82;;;5.80;;
61644;SDS011;47553;52.428;13.382;2022-11-18T10:14:48;14.82;;;6.20;;
61644;SDS011;47553;52.428;13.382;2022-11-18T10:17:03;15.77;;;6.30;;
61644;SDS011;47553;52.428;13.382;2022-11-18T10:19:16;14.90;;;5.53;;
61644;SDS011;47553;52.428;13.382;2022-11-18T10:21:30;10.90;;;5.22;;
61644;SDS011;47553;52.428;13.382;2022-11-18T10:23:44;14.23;;;5.05;;
61644;SDS011;47553;52.428;13.382;2022-11-18T10:25:53;15.95;;;6.00;;
61644;SDS011;47553;52.428;13.382;2022-11-18T10:27:54;15.10;;;5.78;;
61644;SDS011;47553;52.428;13.382;2022-11-18T10:30:06;17.77;;;6.80;;
61644;SDS011;47553;52.428;13.382;2022-11-18T10:32:13;14.30;;;6.60;;
61644;SDS011;47553;52.428;13.382;2022-11-18T10:34:16;11.75;;;4.63;;
61644;SDS011;47553;52.428;13.382;2022-11-18T10:36:24;11.02;;;4.53;;
61644;SDS011;47553;52.428;13.382;2022-11-18T10:38:28;12.02;;;5.10;;
61644;SDS011;47553;52.428;13.382;2022-11-18T10:40:31;11.30;;;4.57;;
61644;SDS011;47553;52.428;13.382;2022-11-18T10:42:34;13.65;;;6.00;;
61644;SDS011;47553;52.428;13.382;2022-11-18T10:44:41;12.80;;;5.00;;
61644;SDS011;47553;52.428;13.382;2022-11-18T10:46:43;14.07;;;5.35;;
61644;SDS011;47553;52.428;13.382;2022-11-18T10:48:44;14.48;;;5.38;;
61644;SDS011;47553;52.428;13.382;2022-11-18T10:50:46;12.65;;;4.97;;
61644;SDS011;47553;52.428;13.382;2022-11-18T10:52:55;10.55;;;4.35;;
61644;SDS011;47553;52.428;13.382;2022-11-18T10:55:07;14.27;;;5.25;;
61644;SDS011;47553;52.428;13.382;2022-11-18T10:57:20;11.20;;;5.03;;
61644;SDS011;47553;52.428;13.382;2022-11-18T10:59:25;12.63;;;5.32;;
61644;SDS011;47553;52.428;13.382;2022-11-18T11:01:30;14.75;;;5.57;;
61644;SDS011;47553;52.428;13.382;2022-11-18T11:05:35;13.65;;;5.32;;
61644;SDS011;47553;52.428;13.382;2022-11-18T11:07:36;12.35;;;5.30;;
61644;SDS011;47553;52.428;13.382;2022-11-18T11:11:41;13.73;;;5.95;;
61644;SDS011;47553;52.428;13.382;2022-11-18T11:14:03;11.63;;;5.47;;
61644;SDS011;47553;52.428;13.382;2022-11-18T11:16:09;11.68;;;4.60;;
61644;SDS011;47553;52.428;13.382;2022-11-18T11:18:26;11.50;;;4.03;;
61644;SDS011;47553;52.428;13.382;2022-11-18T11:20:29;13.90;;;5.95;;
61644;SDS011;47553;52.428;13.382;2022-11-18T11:22:31;13.55;;;5.63;;
61644;SDS011;47553;52.428;13.382;2022-11-18T11:24:33;11.77;;;4.80;;
61644;SDS011;47553;52.428;13.382;2022-11-18T11:26:36;11.90;;;4.70;;
61644;SDS011;47553;52.428;13.382;2022-11-18T11:29:12;10.95;;;4.97;;
61644;SDS011;47553;52.428;13.382;2022-11-18T11:31:26;11.98;;;3.97;;
61644;SDS011;47553;52.428;13.382;2022-11-18T11:33:37;11.70;;;4.40;;
61644;SDS011;47553;52.428;13.382;2022-11-18T11:35:46;11.50;;;4.18;;
61644;SDS011;47553;52.428;13.382;2022-11-18T11:37:54;13.20;;;4.75;;
61644;SDS011;47553;52.428;13.382;2022-11-18T11:40:02;14.02;;;3.75;;
61644;SDS011;47553;52.428;13.382;2022-11-18T11:42:28;9.98;;;4.38;;
61644;SDS011;47553;52.428;13.382;2022-11-18T11:44:42;14.23;;;4.60;;
61644;SDS011;47553;52.428;13.382;2022-11-18T11:46:58;12.15;;;4.75;;
61644;SDS011;47553;52.428;13.382;2022-11-18T11:49:15;13.30;;;4.85;;
61644;SDS011;47553;52.428;13.382;2022-11-18T11:51:22;14.65;;;5.85;;
61644;SDS011;47553;52.428;13.382;2022-11-18T11:53:44;14.65;;;5.40;;
61644;SDS011;47553;52.428;13.382;2022-11-18T11:55:56;14.30;;;5.68;;
61644;SDS011;47553;52.428;13.382;2022-11-18T11:58:10;11.13;;;4.75;;
61644;SDS011;47553;52.428;13.382;2022-11-18T12:00:22;14.35;;;5.30;;
61644;SDS011;47553;52.428;13.382;2022-11-18T12:02:28;14.50;;;5.60;;
61644;SDS011;47553;52.428;13.382;2022-11-18T12:04:40;10.30;;;4.28;;
61644;SDS011;47553;52.428;13.382;2022-11-18T12:06:45;14.02;;;5.00;;
61644;SDS011;47553;52.428;13.382;2022-11-18T12:08:55;14.10;;;5.63;;
61644;SDS011;47553;52.428;13.382;2022-11-18T12:11:05;14.70;;;4.65;;
61644;SDS011;47553;52.428;13.382;2022-11-18T12:13:21;11.63;;;4.75;;
61644;SDS011;47553;52.428;13.382;2022-11-18T12:15:34;15.43;;;5.30;;
61644;SDS011;47553;52.428;13.382;2022-11-18T12:17:46;13.20;;;4.03;;
61644;SDS011;47553;52.428;13.382;2022-11-18T12:19:54;9.88;;;3.97;;
61644;SDS011;47553;52.428;13.382;2022-11-18T12:21:59;12.00;;;5.03;;
61644;SDS011;47553;52.428;13.382;2022-11-18T12:26:32;10.68;;;4.15;;
61644;SDS011;47553;52.428;13.382;2022-11-18T12:28:37;13.02;;;4.80;;
61644;SDS011;47553;52.428;13.382;2022-11-18T12:30:41;14.52;;;5.50;;
61644;SDS011;47553;52.428;13.382;2022-11-18T12:32:43;12.10;;;4.70;;
61644;SDS011;47553;52.428;13.382;2022-11-18T12:34:45;9.27;;;4.13;;
61644;SDS011;47553;52.428;13.382;2022-11-18T12:39:45;10.90;;;4.00;;
61644;SDS011;47553;52.428;13.382;2022-11-18T12:41:52;11.50;;;4.95;;
61644;SDS011;47553;52.428;13.382;2022-11-18T12:48:48;9.65;;;4.35;;
61644;SDS011;47553;52.428;13.382;2022-11-18T12:50:51;11.57;;;4.80;;